sensor_id;sensor_type;location;lat;lon;timestamp;pressure;altitude;pressure_sealevel;temperature;humidity
13013;BME280;22580;57.670;12.006;2023-02-12T00:01:52;102698.34;;;11.27;93.65
13013;BME280;22580;57.670;12.006;2023-02-12T00:04:19;102698.69;;;11.19;94.19
13013;BME280;22580;57.670;12.006;2023-02-12T00:06:47;102697.63;;;11.23;94.04
13013;BME280;22580;57.670;12.006;2023-02-12T00:09:14;102695.97;;;11.21;94.34
13013;BME280;22580;57.670;12.006;2023-02-12T00:11:41;102646.41;;;10.90;94.06
13013;BME280;22580;57.670;12.006;2023-02-12T00:14:08;102695.97;;;11.21;94.33
13013;BME280;22580;57.670;12.006;2023-02-12T00:16:35;102704.00;;;11.21;94.50
13013;BME280;22580;57.670;12.006;2023-02-12T00:19:02;102696.47;;;11.08;95.02
13013;BME280;22580;57.670;12.006;2023-02-12T00:21:30;102674.38;;;11.03;94.63
13013;BME280;22580;57.670;12.006;2023-02-12T00:23:58;102672.66;;;11.02;95.25
13013;BME280;22580;57.670;12.006;2023-02-12T00:26:25;102704.06;;;11.19;95.87
13013;BME280;22580;57.670;12.006;2023-02-12T00:28:53;102688.25;;;11.13;95.79
13013;BME280;22580;57.670;12.006;2023-02-12T00:31:21;102672.72;;;11.01;96.56
13013;BME280;22580;57.670;12.006;2023-02-12T00:33:49;102649.63;;;10.98;96.82
13013;BME280;22580;57.670;12.006;2023-02-12T00:36:18;102658.22;;;10.84;97.49
13013;BME280;22580;57.670;12.006;2023-02-12T00:38:46;102682.94;;;10.91;98.26
13013;BME280;22580;57.670;12.006;2023-02-12T00:41:15;102710.97;;;11.03;98.68
13013;BME280;22580;57.670;12.006;2023-02-12T00:43:42;102698.75;;;11.38;97.75
13013;BME280;22580;57.670;12.006;2023-02-12T00:46:09;102666.31;;;11.25;97.04
13013;BME280;22580;57.670;12.006;2023-02-12T00:48:36;102693.31;;;11.39;97.72
13013;BME280;22580;57.670;12.006;2023-02-12T00:51:04;102697.41;;;11.48;97.70
13013;BME280;22580;57.670;12.006;2023-02-12T00:53:31;102684.50;;;11.37;98.30
13013;BME280;22580;57.670;12.006;2023-02-12T00:55:59;102698.63;;;11.61;97.71
13013;BME280;22580;57.670;12.006;2023-02-12T00:58:28;102575.56;;;10.99;97.13
13013;BME280;22580;57.670;12.006;2023-02-12T01:00:55;102663.19;;;11.55;97.22
13013;BME280;22580;57.670;12.006;2023-02-12T01:03:22;102631.94;;;11.35;97.20
13013;BME280;22580;57.670;12.006;2023-02-12T01:05:50;102691.31;;;11.65;97.21
13013;BME280;22580;57.670;12.006;2023-02-12T01:08:17;102690.03;;;11.73;97.13
13013;BME280;22580;57.670;12.006;2023-02-12T01:10:53;102687.19;;;11.78;97.06
13013;BME280;22580;57.670;12.006;2023-02-12T01:13:21;102687.78;;;11.85;97.27
13013;BME280;22580;57.670;12.006;2023-02-12T01:16:00;102660.53;;;11.55;98.54
13013;BME280;22580;57.670;12.006;2023-02-12T01:18:28;102683.28;;;11.65;97.99
13013;BME280;22580;57.670;12.006;2023-02-12T01:20:55;102697.84;;;11.79;98.01
13013;BME280;22580;57.670;12.006;2023-02-12T01:23:23;102694.22;;;11.80;98.05
13013;BME280;22580;57.670;12.006;2023-02-12T01:25:50;102693.66;;;11.72;98.46
13013;BME280;22580;57.670;12.006;2023-02-12T01:28:18;102698.78;;;11.78;98.34
13013;BME280;22580;57.670;12.006;2023-02-12T01:30:45;102639.97;;;11.55;97.78
13013;BME280;22580;57.670;12.006;2023-02-12T01:33:13;102708.00;;;11.92;98.07
13013;BME280;22580;57.670;12.006;2023-02-12T01:35:40;102708.38;;;12.03;98.33
13013;BME280;22580;57.670;12.006;2023-02-12T01:38:07;102665.78;;;11.76;98.28
13013;BME280;22580;57.670;12.006;2023-02-12T01:40:35;102646.22;;;11.74;98.02
13013;BME280;22580;57.670;12.006;2023-02-12T01:43:02;102690.34;;;12.06;98.11
13013;BME280;22580;57.670;12.006;2023-02-12T01:45:50;102664.25;;;11.91;97.46
13013;BME280;22580;57.670;12.006;2023-02-12T01:48:25;102693.66;;;11.93;98.22
13013;BME280;22580;57.670;12.006;2023-02-12T01:50:54;102673.44;;;11.86;97.82
13013;BME280;22580;57.670;12.006;2023-02-12T01:53:24;102678.22;;;11.79;98.45
13013;BME280;22580;57.670;12.006;2023-02-12T01:55:57;102691.19;;;11.88;98.97
13013;BME280;22580;57.670;12.006;2023-02-12T01:58:30;102693.00;;;11.88;99.16
13013;BME280;22580;57.670;12.006;2023-02-12T02:01:02;102684.38;;;11.81;99.30
13013;BME280;22580;57.670;12.006;2023-02-12T02:03:33;102629.66;;;11.46;99.80
13013;BME280;22580;57.670;12.006;2023-02-12T02:06:06;102653.03;;;11.42;99.78
13013;BME280;22580;57.670;12.006;2023-02-12T02:08:37;102695.25;;;11.76;99.10
13013;BME280;22580;57.670;12.006;2023-02-12T02:11:04;102681.25;;;11.70;99.48
13013;BME280;22580;57.670;12.006;2023-02-12T02:13:51;102692.41;;;11.81;99.46
13013;BME280;22580;57.670;12.006;2023-02-12T02:16:37;102689.25;;;11.92;99.25
13013;BME280;22580;57.670;12.006;2023-02-12T02:19:17;102668.44;;;11.78;99.08
13013;BME280;22580;57.670;12.006;2023-02-12T02:22:12;102687.06;;;12.19;98.20
13013;BME280;22580;57.670;12.006;2023-02-12T02:27:47;102693.50;;;12.14;97.74
13013;BME280;22580;57.670;12.006;2023-02-12T02:30:42;102678.47;;;12.12;97.69
13013;BME280;22580;57.670;12.006;2023-02-12T02:33:31;102661.34;;;11.96;98.01
13013;BME280;22580;57.670;12.006;2023-02-12T02:36:13;102697.84;;;12.17;97.65
13013;BME280;22580;57.670;12.006;2023-02-12T02:38:49;102701.06;;;12.25;98.01
13013;BME280;22580;57.670;12.006;2023-02-12T02:41:19;102695.69;;;12.25;98.32
13013;BME280;22580;57.670;12.006;2023-02-12T02:43:53;102689.25;;;12.29;97.64
13013;BME280;22580;57.670;12.006;2023-02-12T02:46:27;102665.06;;;12.12;97.41
13013;BME280;22580;57.670;12.006;2023-02-12T02:48:59;102667.44;;;12.18;97.47
13013;BME280;22580;57.670;12.006;2023-02-12T02:51:30;102709.75;;;12.49;96.76
13013;BME280;22580;57.670;12.006;2023-02-12T02:54:04;102679.31;;;12.31;96.50
13013;BME280;22580;57.670;12.006;2023-02-12T02:56:34;102681.06;;;12.32;97.11
13013;BME280;22580;57.670;12.006;2023-02-12T02:59:04;102708.88;;;12.48;97.15
13013;BME280;22580;57.670;12.006;2023-02-12T03:01:39;102678.16;;;12.37;97.15
13013;BME280;22580;57.670;12.006;2023-02-12T03:04:11;102692.72;;;12.50;96.96
13013;BME280;22580;57.670;12.006;2023-02-12T03:06:45;102688.22;;;12.51;96.78
13013;BME280;22580;57.670;12.006;2023-02-12T03:09:17;102691.84;;;12.50;97.00
13013;BME280;22580;57.670;12.006;2023-02-12T03:11:46;102683.88;;;12.48;96.75
13013;BME280;22580;57.670;12.006;2023-02-12T03:14:19;102696.31;;;12.68;96.45
13013;BME280;22580;57.670;12.006;2023-02-12T03:16:53;102699.00;;;12.68;96.47
13013;BME280;22580;57.670;12.006;2023-02-12T03:19:25;102704.38;;;12.68;96.53
13013;BME280;22580;57.670;12.006;2023-02-12T03:21:56;102663.66;;;12.41;96.94
13013;BME280;22580;57.670;12.006;2023-02-12T03:24:28;102659.72;;;12.48;96.88
13013;BME280;22580;57.670;12.006;2023-02-12T03:27:01;102705.81;;;12.75;96.99
13013;BME280;22580;57.670;12.006;2023-02-12T03:29:28;102667.56;;;12.53;96.96
13013;BME280;22580;57.670;12.006;2023-02-12T03:32:08;102703.94;;;12.77;97.34
13013;BME280;22580;57.670;12.006;2023-02-12T03:34:45;102700.53;;;12.73;97.17
13013;BME280;22580;57.670;12.006;2023-02-12T03:37:17;102687.47;;;12.66;97.69
13013;BME280;22580;57.670;12.006;2023-02-12T03:39:52;102714.75;;;12.75;97.81
13013;BME280;22580;57.670;12.006;2023-02-12T03:42:30;102693.72;;;12.66;98.15
13013;BME280;22580;57.670;12.006;2023-02-12T03:45:02;102725.91;;;12.85;98.29
13013;BME280;22580;57.670;12.006;2023-02-12T03:47:38;102709.47;;;12.55;99.57
13013;BME280;22580;57.670;12.006;2023-02-12T03:50:12;102729.75;;;12.61;100.00
13013;BME280;22580;57.670;12.006;2023-02-12T03:52:42;102728.44;;;12.69;100.00
13013;BME280;22580;57.670;12.006;2023-02-12T03:55:10;102728.16;;;12.75;100.00
13013;BME280;22580;57.670;12.006;2023-02-12T03:57:41;102732.94;;;12.88;100.00
13013;BME280;22580;57.670;12.006;2023-02-12T04:00:12;102742.34;;;12.96;100.00
13013;BME280;22580;57.670;12.006;2023-02-12T04:02:41;102731.47;;;12.99;100.00
13013;BME280;22580;57.670;12.006;2023-02-12T04:05:16;102730.59;;;12.99;100.00
13013;BME280;22580;57.670;12.006;2023-02-12T04:07:43;102686.53;;;12.67;100.00
13013;BME280;22580;57.670;12.006;2023-02-12T04:10:10;102699.69;;;12.90;100.00
13013;BME280;22580;57.670;12.006;2023-02-12T04:12:40;102740.66;;;13.30;99.78
13013;BME280;22580;57.670;12.006;2023-02-12T04:15:36;102739.41;;;13.37;99.86
13013;BME280;22580;57.670;12.006;2023-02-12T04:18:14;102708.47;;;13.11;100.00
13013;BME280;22580;57.670;12.006;2023-02-12T04:20:52;102705.69;;;13.12;100.00
13013;BME280;22580;57.670;12.006;2023-02-12T04:23:36;102719.81;;;13.18;100.00
13013;BME280;22580;57.670;12.006;2023-02-12T04:26:09;102720.22;;;13.08;100.00
13013;BME280;22580;57.670;12.006;2023-02-12T04:28:45;102728.19;;;12.93;100.00
13013;BME280;22580;57.670;12.006;2023-02-12T04:31:21;102730.31;;;13.03;100.00
13013;BME280;22580;57.670;12.006;2023-02-12T04:33:55;102689.75;;;13.09;100.00
13013;BME280;22580;57.670;12.006;2023-02-12T04:36:29;102725.03;;;13.38;100.00
13013;BME280;22580;57.670;12.006;2023-02-12T04:38:59;102726.28;;;13.31;100.00
13013;BME280;22580;57.670;12.006;2023-02-12T04:41:27;102717.59;;;13.43;100.00
13013;BME280;22580;57.670;12.006;2023-02-12T04:43:56;102723.84;;;13.26;100.00
13013;BME280;22580;57.670;12.006;2023-02-12T04:46:23;102683.44;;;13.10;100.00
13013;BME280;22580;57.670;12.006;2023-02-12T04:48:55;102711.91;;;13.32;100.00
13013;BME280;22580;57.670;12.006;2023-02-12T04:51:23;102708.13;;;13.36;100.00
13013;BME280;22580;57.670;12.006;2023-02-12T04:53:50;102709.16;;;13.33;100.00
13013;BME280;22580;57.670;12.006;2023-02-12T04:56:17;102744.63;;;13.40;100.00
13013;BME280;22580;57.670;12.006;2023-02-12T04:58:45;102716.66;;;13.27;100.00
13013;BME280;22580;57.670;12.006;2023-02-12T05:01:12;102733.88;;;13.40;100.00
13013;BME280;22580;57.670;12.006;2023-02-12T05:03:39;102737.59;;;13.37;100.00
13013;BME280;22580;57.670;12.006;2023-02-12T05:06:09;102733.31;;;13.51;100.00
13013;BME280;22580;57.670;12.006;2023-02-12T05:08:36;102734.59;;;13.43;100.00
13013;BME280;22580;57.670;12.006;2023-02-12T05:11:04;102719.41;;;13.42;100.00
13013;BME280;22580;57.670;12.006;2023-02-12T05:13:32;102742.09;;;13.54;100.00
13013;BME280;22580;57.670;12.006;2023-02-12T05:15:59;102680.84;;;13.26;100.00
13013;BME280;22580;57.670;12.006;2023-02-12T05:18:29;102712.31;;;13.59;100.00
13013;BME280;22580;57.670;12.006;2023-02-12T05:20:56;102705.09;;;13.59;100.00
13013;BME280;22580;57.670;12.006;2023-02-12T05:23:26;102731.91;;;13.61;100.00
13013;BME280;22580;57.670;12.006;2023-02-12T05:25:54;102728.66;;;13.54;100.00
13013;BME280;22580;57.670;12.006;2023-02-12T05:28:24;102725.03;;;13.55;100.00
13013;BME280;22580;57.670;12.006;2023-02-12T05:30:52;102727.88;;;13.69;100.00
13013;BME280;22580;57.670;12.006;2023-02-12T05:33:19;102708.81;;;13.57;100.00
13013;BME280;22580;57.670;12.006;2023-02-12T05:35:46;102722.78;;;13.81;100.00
13013;BME280;22580;57.670;12.006;2023-02-12T05:38:14;102714.97;;;13.76;100.00
13013;BME280;22580;57.670;12.006;2023-02-12T05:40:42;102710.13;;;13.83;100.00
13013;BME280;22580;57.670;12.006;2023-02-12T05:43:11;102609.44;;;13.22;100.00
13013;BME280;22580;57.670;12.006;2023-02-12T05:45:38;102715.78;;;13.94;100.00
13013;BME280;22580;57.670;12.006;2023-02-12T05:48:06;102692.34;;;13.80;100.00
13013;BME280;22580;57.670;12.006;2023-02-12T05:50:33;102713.88;;;13.96;100.00
13013;BME280;22580;57.670;12.006;2023-02-12T05:53:00;102689.66;;;13.80;100.00
13013;BME280;22580;57.670;12.006;2023-02-12T05:55:27;102705.22;;;14.06;100.00
13013;BME280;22580;57.670;12.006;2023-02-12T05:57:57;102694.13;;;14.13;100.00
13013;BME280;22580;57.670;12.006;2023-02-12T06:00:24;102655.13;;;13.88;100.00
13013;BME280;22580;57.670;12.006;2023-02-12T06:02:51;102670.25;;;13.91;100.00
13013;BME280;22580;57.670;12.006;2023-02-12T06:05:18;102619.81;;;13.63;100.00
13013;BME280;22580;57.670;12.006;2023-02-12T06:07:46;102710.47;;;14.25;100.00
13013;BME280;22580;57.670;12.006;2023-02-12T06:10:14;102705.88;;;14.27;100.00
13013;BME280;22580;57.670;12.006;2023-02-12T06:12:42;102712.78;;;14.16;100.00
13013;BME280;22580;57.670;12.006;2023-02-12T06:15:10;102713.50;;;14.19;100.00
13013;BME280;22580;57.670;12.006;2023-02-12T06:17:37;102713.75;;;14.15;100.00
13013;BME280;22580;57.670;12.006;2023-02-12T06:20:04;102712.97;;;14.13;100.00
13013;BME280;22580;57.670;12.006;2023-02-12T06:22:31;102682.50;;;14.12;100.00
13013;BME280;22580;57.670;12.006;2023-02-12T06:24:58;102698.97;;;14.06;100.00
13013;BME280;22580;57.670;12.006;2023-02-12T06:27:26;102727.75;;;14.37;100.00
13013;BME280;22580;57.670;12.006;2023-02-12T06:29:53;102730.00;;;14.29;100.00
13013;BME280;22580;57.670;12.006;2023-02-12T06:32:25;102728.25;;;14.28;100.00
13013;BME280;22580;57.670;12.006;2023-02-12T06:34:52;102708.72;;;14.24;100.00
13013;BME280;22580;57.670;12.006;2023-02-12T06:37:19;102735.13;;;14.33;100.00
13013;BME280;22580;57.670;12.006;2023-02-12T06:39:46;102715.28;;;14.03;100.00
13013;BME280;22580;57.670;12.006;2023-02-12T06:42:13;102724.91;;;14.07;100.00
13013;BME280;22580;57.670;12.006;2023-02-12T06:44:42;102719.16;;;13.82;100.00
13013;BME280;22580;57.670;12.006;2023-02-12T06:47:11;102682.22;;;13.35;100.00
13013;BME280;22580;57.670;12.006;2023-02-12T06:49:39;102732.44;;;13.85;100.00
13013;BME280;22580;57.670;12.006;2023-02-12T06:52:06;102693.88;;;13.68;100.00
13013;BME280;22580;57.670;12.006;2023-02-12T06:54:33;102725.75;;;13.92;100.00
13013;BME280;22580;57.670;12.006;2023-02-12T06:57:00;102718.03;;;13.86;100.00
13013;BME280;22580;57.670;12.006;2023-02-12T06:59:27;102743.91;;;14.04;100.00
13013;BME280;22580;57.670;12.006;2023-02-12T07:01:55;102724.88;;;13.91;100.00
13013;BME280;22580;57.670;12.006;2023-02-12T07:04:22;102716.31;;;13.85;100.00
13013;BME280;22580;57.670;12.006;2023-02-12T07:06:51;102667.25;;;13.64;100.00
13013;BME280;22580;57.670;12.006;2023-02-12T07:09:19;102751.72;;;14.08;100.00
13013;BME280;22580;57.670;12.006;2023-02-12T07:11:46;102741.13;;;14.05;100.00
13013;BME280;22580;57.670;12.006;2023-02-12T07:14:14;102700.81;;;13.72;100.00
13013;BME280;22580;57.670;12.006;2023-02-12T07:16:42;102753.72;;;14.05;100.00
13013;BME280;22580;57.670;12.006;2023-02-12T07:19:11;102758.63;;;13.97;100.00
13013;BME280;22580;57.670;12.006;2023-02-12T07:21:39;102751.03;;;14.05;100.00
13013;BME280;22580;57.670;12.006;2023-02-12T07:24:09;102741.72;;;13.95;100.00
13013;BME280;22580;57.670;12.006;2023-02-12T07:26:37;102712.81;;;13.83;100.00
13013;BME280;22580;57.670;12.006;2023-02-12T07:29:04;102703.19;;;13.78;100.00
13013;BME280;22580;57.670;12.006;2023-02-12T07:31:32;102753.63;;;14.06;100.00
13013;BME280;22580;57.670;12.006;2023-02-12T07:34:00;102751.13;;;14.03;100.00
13013;BME280;22580;57.670;12.006;2023-02-12T07:36:28;102728.53;;;13.90;100.00
13013;BME280;22580;57.670;12.006;2023-02-12T07:38:56;102749.28;;;14.04;100.00
13013;BME280;22580;57.670;12.006;2023-02-12T07:41:26;102745.66;;;14.05;100.00
13013;BME280;22580;57.670;12.006;2023-02-12T07:43:55;102742.19;;;14.03;100.00
13013;BME280;22580;57.670;12.006;2023-02-12T07:46:28;102745.97;;;14.32;100.00
13013;BME280;22580;57.670;12.006;2023-02-12T07:48:57;102746.91;;;14.48;100.00
13013;BME280;22580;57.670;12.006;2023-02-12T07:51:25;102725.63;;;14.43;100.00
13013;BME280;22580;57.670;12.006;2023-02-12T07:53:53;102745.25;;;14.61;100.00
13013;BME280;22580;57.670;12.006;2023-02-12T07:56:22;102747.88;;;14.63;100.00
13013;BME280;22580;57.670;12.006;2023-02-12T07:58:52;102747.28;;;14.40;100.00
13013;BME280;22580;57.670;12.006;2023-02-12T08:01:22;102763.16;;;14.62;100.00
13013;BME280;22580;57.670;12.006;2023-02-12T08:03:50;102754.63;;;14.86;100.00
13013;BME280;22580;57.670;12.006;2023-02-12T08:06:20;102744.44;;;14.91;100.00
13013;BME280;22580;57.670;12.006;2023-02-12T08:08:49;102735.31;;;14.93;99.81
13013;BME280;22580;57.670;12.006;2023-02-12T08:11:16;102671.25;;;14.21;100.00
13013;BME280;22580;57.670;12.006;2023-02-12T08:13:43;102716.78;;;14.73;100.00
13013;BME280;22580;57.670;12.006;2023-02-12T08:16:14;102722.09;;;15.04;99.45
13013;BME280;22580;57.670;12.006;2023-02-12T08:18:42;102745.97;;;15.26;98.85
13013;BME280;22580;57.670;12.006;2023-02-12T08:21:10;102697.81;;;14.90;99.42
13013;BME280;22580;57.670;12.006;2023-02-12T08:23:37;102731.25;;;14.86;100.00
13013;BME280;22580;57.670;12.006;2023-02-12T08:26:07;102743.66;;;15.04;99.81
13013;BME280;22580;57.670;12.006;2023-02-12T08:28:35;102647.34;;;13.99;100.00
13013;BME280;22580;57.670;12.006;2023-02-12T08:31:03;102728.94;;;14.64;100.00
13013;BME280;22580;57.670;12.006;2023-02-12T08:33:31;102700.88;;;14.68;99.56
13013;BME280;22580;57.670;12.006;2023-02-12T08:36:03;102709.31;;;14.47;100.00
13013;BME280;22580;57.670;12.006;2023-02-12T08:38:31;102746.38;;;14.57;100.00
13013;BME280;22580;57.670;12.006;2023-02-12T08:41:02;102735.09;;;14.66;100.00
13013;BME280;22580;57.670;12.006;2023-02-12T08:43:29;102704.72;;;14.49;100.00
13013;BME280;22580;57.670;12.006;2023-02-12T08:46:00;102706.81;;;14.26;100.00
13013;BME280;22580;57.670;12.006;2023-02-12T08:48:29;102710.53;;;14.57;100.00
13013;BME280;22580;57.670;12.006;2023-02-12T08:51:03;102713.41;;;14.69;100.00
13013;BME280;22580;57.670;12.006;2023-02-12T08:53:30;102717.59;;;14.26;100.00
13013;BME280;22580;57.670;12.006;2023-02-12T08:55:57;102712.03;;;14.29;100.00
13013;BME280;22580;57.670;12.006;2023-02-12T08:58:24;102711.41;;;14.41;100.00
13013;BME280;22580;57.670;12.006;2023-02-12T09:00:51;102703.28;;;14.26;100.00
13013;BME280;22580;57.670;12.006;2023-02-12T09:03:18;102739.09;;;14.43;100.00
13013;BME280;22580;57.670;12.006;2023-02-12T09:05:45;102736.91;;;14.82;100.00
13013;BME280;22580;57.670;12.006;2023-02-12T09:08:14;102757.13;;;15.04;100.00
13013;BME280;22580;57.670;12.006;2023-02-12T09:10:42;102732.16;;;14.71;100.00
13013;BME280;22580;57.670;12.006;2023-02-12T09:13:11;102767.97;;;15.03;100.00
13013;BME280;22580;57.670;12.006;2023-02-12T09:15:42;102737.53;;;14.71;100.00
13013;BME280;22580;57.670;12.006;2023-02-12T09:18:10;102746.53;;;14.86;100.00
13013;BME280;22580;57.670;12.006;2023-02-12T09:20:39;102758.13;;;14.39;100.00
13013;BME280;22580;57.670;12.006;2023-02-12T09:23:07;102740.22;;;14.71;100.00
13013;BME280;22580;57.670;12.006;2023-02-12T09:25:38;102759.75;;;14.59;100.00
13013;BME280;22580;57.670;12.006;2023-02-12T09:28:06;102763.38;;;14.73;100.00
13013;BME280;22580;57.670;12.006;2023-02-12T09:30:33;102749.97;;;14.40;100.00
13013;BME280;22580;57.670;12.006;2023-02-12T09:33:00;102771.31;;;14.61;100.00
13013;BME280;22580;57.670;12.006;2023-02-12T09:35:27;102774.75;;;14.79;100.00
13013;BME280;22580;57.670;12.006;2023-02-12T09:37:54;102770.94;;;15.14;100.00
13013;BME280;22580;57.670;12.006;2023-02-12T09:40:24;102759.44;;;15.26;99.45
13013;BME280;22580;57.670;12.006;2023-02-12T09:43:05;102775.25;;;15.32;99.00
13013;BME280;22580;57.670;12.006;2023-02-12T09:45:36;102750.56;;;15.24;99.46
13013;BME280;22580;57.670;12.006;2023-02-12T09:48:17;102759.75;;;15.36;100.00
13013;BME280;22580;57.670;12.006;2023-02-12T09:50:52;102748.25;;;15.48;100.00
13013;BME280;22580;57.670;12.006;2023-02-12T09:53:22;102770.09;;;15.44;100.00
13013;BME280;22580;57.670;12.006;2023-02-12T09:55:51;102762.88;;;15.44;100.00
13013;BME280;22580;57.670;12.006;2023-02-12T09:58:27;102755.50;;;15.62;98.96
13013;BME280;22580;57.670;12.006;2023-02-12T10:00:55;102768.09;;;15.47;99.96
13013;BME280;22580;57.670;12.006;2023-02-12T10:03:23;102763.88;;;15.27;98.48
13013;BME280;22580;57.670;12.006;2023-02-12T10:05:57;102773.94;;;15.69;99.40
13013;BME280;22580;57.670;12.006;2023-02-12T10:08:40;102773.19;;;15.22;98.91
13013;BME280;22580;57.670;12.006;2023-02-12T10:11:22;102769.72;;;15.04;98.57
13013;BME280;22580;57.670;12.006;2023-02-12T10:14:02;102786.19;;;15.29;98.65
13013;BME280;22580;57.670;12.006;2023-02-12T10:16:44;102783.03;;;15.53;98.34
13013;BME280;22580;57.670;12.006;2023-02-12T10:19:25;102756.19;;;15.35;97.96
13013;BME280;22580;57.670;12.006;2023-02-12T10:22:03;102745.38;;;15.21;97.46
13013;BME280;22580;57.670;12.006;2023-02-12T10:24:50;102655.09;;;14.21;98.69
13013;BME280;22580;57.670;12.006;2023-02-12T10:27:35;102788.75;;;14.85;100.00
13013;BME280;22580;57.670;12.006;2023-02-12T10:30:13;102782.94;;;14.93;100.00
13013;BME280;22580;57.670;12.006;2023-02-12T10:32:43;102764.69;;;14.82;100.00
13013;BME280;22580;57.670;12.006;2023-02-12T10:35:13;102755.03;;;15.09;99.50
13013;BME280;22580;57.670;12.006;2023-02-12T10:37:44;102761.41;;;15.38;99.67
13013;BME280;22580;57.670;12.006;2023-02-12T10:40:17;102632.53;;;14.71;99.63
13013;BME280;22580;57.670;12.006;2023-02-12T10:42:47;102761.00;;;15.30;100.00
13013;BME280;22580;57.670;12.006;2023-02-12T10:45:19;102764.41;;;15.78;100.00
13013;BME280;22580;57.670;12.006;2023-02-12T10:47:50;102761.56;;;16.10;99.11
13013;BME280;22580;57.670;12.006;2023-02-12T10:50:23;102766.19;;;16.08;98.66
13013;BME280;22580;57.670;12.006;2023-02-12T10:52:55;102787.66;;;16.52;99.16
13013;BME280;22580;57.670;12.006;2023-02-12T10:55:27;102614.59;;;15.16;96.05
13013;BME280;22580;57.670;12.006;2023-02-12T10:57:56;102754.78;;;15.74;95.79
13013;BME280;22580;57.670;12.006;2023-02-12T11:00:28;102778.31;;;15.56;96.61
13013;BME280;22580;57.670;12.006;2023-02-12T11:03:22;102777.22;;;15.74;97.07
13013;BME280;22580;57.670;12.006;2023-02-12T11:05:49;102748.66;;;16.00;98.02
13013;BME280;22580;57.670;12.006;2023-02-12T11:08:28;102771.31;;;16.12;95.22
13013;BME280;22580;57.670;12.006;2023-02-12T11:11:04;102783.19;;;15.80;95.97
13013;BME280;22580;57.670;12.006;2023-02-12T11:13:32;102718.84;;;15.73;95.80
13013;BME280;22580;57.670;12.006;2023-02-12T11:16:01;102715.78;;;15.94;96.07
13013;BME280;22580;57.670;12.006;2023-02-12T11:18:29;102739.84;;;15.68;94.69
13013;BME280;22580;57.670;12.006;2023-02-12T11:21:00;102764.09;;;15.68;96.90
13013;BME280;22580;57.670;12.006;2023-02-12T11:23:30;102742.50;;;16.13;96.50
13013;BME280;22580;57.670;12.006;2023-02-12T11:25:59;102767.63;;;16.70;94.21
13013;BME280;22580;57.670;12.006;2023-02-12T11:28:27;102708.75;;;15.33;95.03
13013;BME280;22580;57.670;12.006;2023-02-12T11:30:56;102758.53;;;15.71;95.10
13013;BME280;22580;57.670;12.006;2023-02-12T11:33:27;102771.59;;;15.33;96.16
13013;BME280;22580;57.670;12.006;2023-02-12T11:35:58;102761.34;;;15.84;94.85
13013;BME280;22580;57.670;12.006;2023-02-12T11:38:28;102742.66;;;15.95;93.35
13013;BME280;22580;57.670;12.006;2023-02-12T11:41:00;102726.06;;;15.73;93.93
13013;BME280;22580;57.670;12.006;2023-02-12T11:43:28;102746.09;;;14.77;97.08
13013;BME280;22580;57.670;12.006;2023-02-12T11:45:58;102740.72;;;14.93;95.91
13013;BME280;22580;57.670;12.006;2023-02-12T11:48:29;102761.69;;;15.34;96.58
13013;BME280;22580;57.670;12.006;2023-02-12T11:51:00;102738.41;;;15.17;95.97
13013;BME280;22580;57.670;12.006;2023-02-12T11:53:30;102771.03;;;15.72;94.82
13013;BME280;22580;57.670;12.006;2023-02-12T11:56:01;102732.84;;;15.20;95.39
13013;BME280;22580;57.670;12.006;2023-02-12T11:58:29;102783.91;;;15.53;94.69
13013;BME280;22580;57.670;12.006;2023-02-12T12:01:13;102769.50;;;15.68;94.85
13013;BME280;22580;57.670;12.006;2023-02-12T12:03:48;102717.19;;;15.27;94.75
13013;BME280;22580;57.670;12.006;2023-02-12T12:06:23;102773.09;;;15.53;95.23
13013;BME280;22580;57.670;12.006;2023-02-12T12:08:55;102728.47;;;15.33;95.44
13013;BME280;22580;57.670;12.006;2023-02-12T12:11:28;102730.03;;;15.82;94.25
13013;BME280;22580;57.670;12.006;2023-02-12T12:14:03;102750.69;;;16.25;92.78
13013;BME280;22580;57.670;12.006;2023-02-12T12:16:35;102762.25;;;16.42;92.05
13013;BME280;22580;57.670;12.006;2023-02-12T12:19:24;102758.78;;;16.25;92.94
13013;BME280;22580;57.670;12.006;2023-02-12T12:22:26;102716.94;;;16.32;90.82
13013;BME280;22580;57.670;12.006;2023-02-12T12:25:03;102741.44;;;16.29;90.87
13013;BME280;22580;57.670;12.006;2023-02-12T12:27:35;102760.75;;;16.50;90.73
13013;BME280;22580;57.670;12.006;2023-02-12T12:30:39;102747.94;;;16.68;90.72
13013;BME280;22580;57.670;12.006;2023-02-12T12:33:14;102768.13;;;16.34;90.00
13013;BME280;22580;57.670;12.006;2023-02-12T12:35:52;102747.31;;;16.36;90.99
13013;BME280;22580;57.670;12.006;2023-02-12T12:38:32;102741.31;;;16.45;89.99
13013;BME280;22580;57.670;12.006;2023-02-12T12:41:11;102765.50;;;16.47;89.83
13013;BME280;22580;57.670;12.006;2023-02-12T12:43:50;102772.38;;;16.10;91.03
13013;BME280;22580;57.670;12.006;2023-02-12T12:46:37;102754.94;;;16.15;91.14
13013;BME280;22580;57.670;12.006;2023-02-12T12:52:22;102767.72;;;15.97;92.52
13013;BME280;22580;57.670;12.006;2023-02-12T12:55:10;102764.25;;;15.95;92.54
13013;BME280;22580;57.670;12.006;2023-02-12T12:57:49;102771.72;;;15.76;93.28
13013;BME280;22580;57.670;12.006;2023-02-12T13:00:33;102745.28;;;16.25;91.85
13013;BME280;22580;57.670;12.006;2023-02-12T13:03:27;102697.09;;;16.05;90.09